Nearby METAR Reports

Actuele Vliegveldwaarnemingen NL (METAR).Zie KNMI uitleg METAR hier

EHAM - Amsterdam/Schiph, Netherlands
Distance from station: ONO 18km
Updated: 21/01/2021 09:55
Few Clouds
Few Clouds
 Wind van ZW
Wind: ZW 37 km/h
Temperatuur: 6°C
Wind Chill: 1°C
Dauwpunt: 1°C
Vochtigheid: 71%
Barometer: 987 hPa
Clouds: Few Clouds
Visibility: 10 km
Cloud details: Few Clouds 823 m
2021/01/21 08:55 EHAM 210855Z 22020KT 9999 FEW027 06/01 Q0987 NOSIG
EHKD - DE KOOY/DE KOOY
Updated: 21/01/2021 09:55
Meestal bewolkt
Meestal bewolkt
 Wind van ZW
Wind: ZW 46 km/h, Windvlaag: 65 km/h
Temperatuur: 7°C
Wind Chill: 2°C
Dauwpunt: 2°C
Vochtigheid: 71%
Barometer: 985 hPa
Clouds: Meestal bewolkt
Visibility: 10 km
Cloud details: Few Clouds 853 m
Gedeeltelijk bewolkt 1006 m
Meestal bewolkt 1128 m
2021/01/21 08:55 EHKD 210855Z AUTO 22025G35KT 190V250 9999 FEW028 SCT033 BKN037 07/02 Q0985 BLU NOSIG
 
EHLW - LEEUWARDEN/LEEUWARDEN
Updated: 21/01/2021 09:55
Meestal bewolkt
Meestal bewolkt
 Wind van ZW
Wind: ZW 39 km/h
Temperatuur: 6°C
Wind Chill: 1°C
Dauwpunt: 2°C
Vochtigheid: 76%
Barometer: 985 hPa
Clouds: Meestal bewolkt
Visibility: 10 km
Cloud details: Few Clouds 853 m
Meestal bewolkt 1036 m
2021/01/21 08:55 EHLW 210855Z AUTO 22021KT 180V240 9999 FEW028 BKN034 06/02 Q0985 BLACKBLU
EHVK - VOLKEL/VOLKEL
Updated: 21/01/2021 09:55
Meestal bewolkt
Meestal bewolkt
 Wind van ZZW
Wind: ZZW 28 km/h
Temperatuur: 6°C
Wind Chill: 2°C
Dauwpunt: 3°C
Vochtigheid: 81%
Barometer: 991 hPa
Clouds: Meestal bewolkt
Visibility: 10 km
Cloud details: Few Clouds 762 m
Meestal bewolkt 884 m
Meestal bewolkt 1036 m
2021/01/21 08:55 EHVK 210855Z AUTO 20015KT 160V240 9999 FEW025 BKN029 BKN034 06/03 Q0991 BLU
 
EHFS - VLISSINGEN
Updated: 21/01/2021 09:55
Helder
Helder
 Wind van ZZW
Wind: ZZW 39 km/h
Temperatuur: 6°C
Wind Chill: 1°C
Dauwpunt: 3°C
Vochtigheid: 81%
Barometer: 990 hPa
Clouds: Helder
Visibility: 10 km
2021/01/21 08:55 EHFS 210855Z AUTO 20021KT 9999 NCD 06/03 Q0990
EHEH - EINDHOVEN/EINDHOVEN
Updated: 21/01/2021 09:55
Zwaar bewolkt
Zwaar bewolkt
 Wind van ZZW
Wind: ZZW 24 km/h
Temperatuur: 7°C
Wind Chill: 3°C
Dauwpunt: 3°C
Vochtigheid: 76%
Barometer: 992 hPa
Clouds: Zwaar bewolkt
Visibility: 10 km
Cloud details: Few Clouds 640 m
Meestal bewolkt 884 m
Zwaar bewolkt 1006 m
2021/01/21 08:55 EHEH 210855Z AUTO 20013KT 170V230 9999 FEW021 BKN029 OVC033 07/03 Q0992 BLU NOSIG
 
EHGR - GILZE-RIJEN/GILZE-RIJEN
Updated: 21/01/2021 09:55
Gedeeltelijk bewolkt
Gedeeltelijk bewolkt
 Wind van ZZW
Wind: ZZW 26 km/h
Temperatuur: 6°C
Wind Chill: 2°C
Dauwpunt: 3°C
Vochtigheid: 81%
Barometer: 991 hPa
Clouds: Gedeeltelijk bewolkt
Visibility: 10 km
Cloud details: Gedeeltelijk bewolkt 914 m
2021/01/21 08:55 EHGR 210855Z AUTO 20014KT 160V260 9999 SCT030 06/03 Q0991 BLU TEMPO 21016G26KT
EHDL - ARNHEM/DEELEN
Updated: 21/01/2021 09:55
Helder
Helder
 Wind van ZZW
Wind: ZZW 24 km/h
Temperatuur: 6°C
Wind Chill: 2°C
Dauwpunt: 2°C
Vochtigheid: 76%
Barometer: 990 hPa
Clouds: Helder
Visibility: 10 km
2021/01/21 08:55 EHDL 210855Z AUTO 21013KT 140V250 9999 NCD 06/02 Q0990 BLU
 
EHBK - MAASTRICHT/MAASTRICHT-AACHEN
Updated: 21/01/2021 09:55
Zwaar bewolkt
Zwaar bewolkt
 Wind van ZZW
Wind: ZZW 30 km/h
Temperatuur: 6°C
Wind Chill: 2°C
Dauwpunt: 3°C
Vochtigheid: 81%
Barometer: 994 hPa
Clouds: Zwaar bewolkt
Visibility: 10 km
Cloud details: Few Clouds 488 m
Zwaar bewolkt 1036 m
2021/01/21 08:55 EHBK 210855Z AUTO 20016KT 170V230 9999 FEW016 OVC034 06/03 Q0994 NOSIG